Trail Quillan 2017 - 26/03/2017

28km (1500mD+)

309 participants classés


Retour au Sommaire - Signaler une erreur - Faire défiler





1 2 3 4 5 6 7 /fin /tout

page suivante ->

Pl Do. Nom - Surname Prénom - Name S-Cat /cat Club - Team TEMPS - Time Km/h /sx Pech Tignous - 8° Km
1 113 JOUGLAR FRANÇOIS MSE 1 CA BALMA 02:36:01 10,8 1 00:55:52
2 128 MORILLO CYRIL MV1 1 Team UglowSportFrance 02:36:10 10,8 2 00:55:55
3 194 VARONA GRÉGOIRE MV1 2 TEAM BONNERY / A C Pamiers 02:36:52 10,7 3 00:55:18
4 13 ALIEU ALAIN MV2 1 running66 02:38:16 10,6 4 00:55:20
5 193 DELEPINE ARNAUD MSE 2   02:39:23 10,5 5 00:56:14
6 308 MASSOU PASCAL MSE 3 team CRAFT SALMING 02:42:49 10,3 6 00:57:44
7 255 POCOVI GREGORY MSE 4 GINESTAS XTRAIL / RUNNING CONSEIL 02:43:15 10,3 7 00:57:46
8 276 GIMARD GUILLAUME MSE 5 gimard 02:46:03 10,1 8 00:56:56
9 277 JOLY AYMERIK MSE 6   02:46:19 10,1 9 00:59:13
10 124 MARCO GERALD MSE 7 teamrunlibre 02:47:06 10,1 10 00:57:37
11 187 LASSERRE ERIC MSE 8 La pero team 09 02:48:00 10,0 11 00:58:56
12 9 CICERO BENOIT MSE 9 GINESTAS X TRAIL 02:48:12 10,0 12 00:59:44
13 315 THISSE GUILLAUME MV1 3   02:50:23 9,9 13 00:58:30
14 222 DEUMIER FREDERIC MSE 10 CA BALMA 02:50:30 9,9 14 01:01:05
15 177 CASALS VINCENT MSE 11 3T 02:50:38 9,8 15 00:58:55
16 286 CABRERA STEPHANE MSE 12 ACP 11 02:50:42 9,8 16 00:58:40
17 339 VIVES CHRISTOPHE MSE 13   02:52:41 9,7 17 00:58:52
18 252 FAVRE CHRISTOPHE MV1 4 TEAM BONNERY 02:52:45 9,7 18 01:01:56
19 261 ABELLANEDA JEROME MV1 5 SPIRIDOM DU PAYS D OLMES 02:52:47 9,7 19 01:01:54
20 45 BONAMY CHRISTOPHE MV1 6 ASAT KANGOUROU 02:53:37 9,7 20 01:00:39
21 213 GUSTAVE CLÉMENT MSE 14   02:54:10 9,6 21 01:01:07
22 306 COUFFIGNAL LAURENT MV1 7 GINESTAS X TRAIL 02:56:07 9,5 22 01:02:16
23 148 ROUCHON YVES MV1 8   02:56:48 9,5 23 01:01:34
24 118 PINEDA JEREMY MSE 15 ACP 11 02:58:02 9,4 24 00:59:40
25 39 RAYNAUD RICHARD MV2 2 bibi team 02:58:07 9,4 25 01:01:17
26 73 BONNEAULT YOANN MSE 16 Sapeurs Pompiers de Limoux 02:58:35 9,4 26 01:01:03
27 201 MOREAU THIERRY MV1 9 RT Family & Yeti66 02:59:40 9,4 27 01:01:58
28 127 MUYLAERT LIEVEN MV1 10 FOULEES DU SOU 02:59:59 9,3 28 01:03:09
29 340 LANNES NICOLAS MV1 11 ZINZINS DES COTEAUX 03:00:26 9,3 29 01:01:01
30 30 GIORGI JEREMIE MV1 12   03:00:52 9,3 30 01:02:26
31 156 SICARD SEBASTIEN MV1 13 TUC TRIATHLON 03:01:28 9,3 31 01:05:10
32 71 VERGNES DAVID MV1 14 ATHLETIC CLUB AUTERIVAIN 03:01:45 9,2 32 01:04:38
33 122 ARNAL-BREZUN DIDIER MV2 3 CA BALMA 03:02:16 9,2 33 01:02:40
34 53 VIARGUES MATHIEU MSE 17 CA BALMA 03:02:39 9,2 34 01:04:40
35 235 BARE FREDERIC MV1 15   03:04:10 9,1 35 01:06:35
36 332 GAULTIER THIBAUT MSE 18 ACM RUNNING CLUB 03:04:10 9,1 36 01:04:46
37 147 LINON MICHAEL MSE 19   03:04:14 9,1 37 01:08:21
38 271 SABARROS PATRICK MV2 4 TUC TRIATHLON 03:04:17 9,1 38 01:05:08
39 250 FERNANDES GEORGES MSE 20   03:04:19 9,1 39 01:06:37
40 19 CORREGE FREDERIC MV2 5 PORTET ATHLETIC CLUB 03:05:02 9,1 40 01:05:03
41 52 DE MATOS ANTHONY MSE 21 LES GALOPINS DU CAGIRE 03:05:07 9,1 41 01:04:28
42 225 TOLUCHET STÉPHANE MSE 22 POUMPILS DU CABARDES 03:06:15 9,0 42 01:05:05
43 89 QUINTILLA ERIC MV1 16   03:07:00 9,0 43 01:02:33
44 114 LANDRON PIERRE MSE 23 Astropodes 03:08:02 8,9 44 01:02:43
45 168 PASCAL MAXIME MSE 24   03:08:41 8,9 45 01:08:27
46 260 ESPOSITO FABIEN MV1 17 BEAUVILLE NO TEAM TRAIL 03:08:44 8,9 46 01:07:02
47 327 DUMORA GABRIEL MSE 25 BEAUVILLE NO TEAM TRAIL 03:08:44 8,9 47 01:07:40
48 84 FANTINEL DIDIER MV2 6   03:09:04 8,9 48 01:05:54
49 291 L HERMENIER RICHARD MV1 18   03:09:28 8,9 49 01:07:03
50 265 DE BRAUER BENOIT MSE 26   03:09:30 8,9 50 01:03:31

Aucun commentaires pour le moment, donnez votre avis, vos impressions avant, pendant! et après la course

Déjà membre? Identifiez-vous pour commenter l'épreuve ou créer un compte